createdAt,value
2022-09-06T00:01:12.671Z,2.60
2022-09-06T00:03:41.044Z,2.17
2022-09-06T00:06:10.413Z,2.25
2022-09-06T00:08:38.139Z,2.20
2022-09-06T00:11:07.243Z,2.50
2022-09-06T00:13:34.900Z,2.40
2022-09-06T00:16:07.392Z,2.40
2022-09-06T00:18:35.222Z,2.60
2022-09-06T00:21:03.189Z,2.17
2022-09-06T00:23:30.893Z,2.40
2022-09-06T00:26:03.743Z,2.30
2022-09-06T00:28:33.009Z,2.40
2022-09-06T00:31:08.216Z,2.45
2022-09-06T00:33:36.045Z,2.50
2022-09-06T00:36:04.128Z,2.20
2022-09-06T00:38:31.862Z,2.30
2022-09-06T00:40:59.872Z,2.75
2022-09-06T00:43:27.498Z,2.45
2022-09-06T00:45:57.258Z,2.35
2022-09-06T00:48:25.826Z,2.65
2022-09-06T00:50:57.192Z,2.47
2022-09-06T00:53:25.860Z,2.88
2022-09-06T00:55:53.642Z,2.45
2022-09-06T00:58:21.721Z,2.83
2022-09-06T01:00:49.347Z,2.50
2022-09-06T01:03:19.391Z,2.97
2022-09-06T01:05:55.431Z,2.88
2022-09-06T01:08:29.016Z,2.50
2022-09-06T01:11:30.194Z,2.47
2022-09-06T01:14:15.783Z,2.40
2022-09-06T01:16:52.654Z,2.90
2022-09-06T01:19:52.223Z,2.50
2022-09-06T01:22:38.143Z,2.00
2022-09-06T01:25:28.079Z,2.35
2022-09-06T01:28:12.881Z,3.10
2022-09-06T01:30:48.197Z,2.40
2022-09-06T01:33:23.064Z,2.30
2022-09-06T01:35:57.004Z,2.63
2022-09-06T01:38:24.889Z,2.97
2022-09-06T01:40:52.549Z,3.00
2022-09-06T01:43:25.491Z,2.80
2022-09-06T01:46:01.588Z,2.22
2022-09-06T01:48:41.243Z,2.22
2022-09-06T01:51:20.607Z,2.53
2022-09-06T01:58:02.475Z,2.30
2022-09-06T02:00:36.591Z,2.38
2022-09-06T02:03:15.668Z,2.47
2022-09-06T02:05:48.528Z,2.45
2022-09-06T02:08:19.991Z,2.85
2022-09-06T02:10:53.836Z,2.60
2022-09-06T02:13:25.267Z,2.80
2022-09-06T02:15:58.815Z,2.63
2022-09-06T02:18:31.944Z,2.97
2022-09-06T02:21:00.136Z,2.70
2022-09-06T02:23:33.599Z,2.47
2022-09-06T02:28:32.050Z,2.53
2022-09-06T02:31:06.566Z,3.30
2022-09-06T02:33:35.715Z,3.08
2022-09-06T02:36:06.700Z,3.40
2022-09-06T02:38:36.719Z,3.15
2022-09-06T02:41:05.617Z,3.03
2022-09-06T02:43:33.383Z,2.88
2022-09-06T02:46:02.525Z,2.90
2022-09-06T02:48:30.265Z,3.13
2022-09-06T02:50:57.907Z,3.22
2022-09-06T02:53:25.540Z,3.60
2022-09-06T02:55:53.126Z,2.67
2022-09-06T02:58:20.956Z,3.03
2022-09-06T03:00:48.689Z,3.30
2022-09-06T03:03:17.857Z,5.35
2022-09-06T03:05:48.273Z,3.80
2022-09-06T03:08:15.960Z,3.75
2022-09-06T03:10:49.529Z,3.17
2022-09-06T03:13:17.876Z,3.80
2022-09-06T03:15:46.131Z,3.92
2022-09-06T03:18:14.756Z,2.95
2022-09-06T03:20:43.750Z,3.60
2022-09-06T03:23:11.404Z,3.97
2022-09-06T03:25:39.111Z,3.63
2022-09-06T03:28:06.738Z,3.33
2022-09-06T03:30:34.427Z,3.88
2022-09-06T03:33:03.076Z,3.40
2022-09-06T03:35:30.914Z,3.33
2022-09-06T03:37:59.905Z,3.70
2022-09-06T03:40:27.705Z,3.55
2022-09-06T03:42:55.503Z,3.53
2022-09-06T03:45:23.268Z,3.40
2022-09-06T03:47:50.925Z,3.20
2022-09-06T03:50:18.580Z,3.33
2022-09-06T03:52:46.275Z,3.33
2022-09-06T03:55:15.301Z,3.28
2022-09-06T03:57:42.916Z,2.83
2022-09-06T04:00:11.784Z,2.95
2022-09-06T04:02:39.450Z,3.50
2022-09-06T04:05:07.951Z,3.38
2022-09-06T04:07:37.405Z,3.20
2022-09-06T04:10:05.569Z,3.70
2022-09-06T04:12:34.899Z,3.28
2022-09-06T04:15:02.709Z,3.30
2022-09-06T04:17:30.364Z,3.20
2022-09-06T04:19:58.047Z,3.65
2022-09-06T04:22:25.740Z,3.45
2022-09-06T04:24:53.350Z,3.75
2022-09-06T04:27:21.001Z,3.65
2022-09-06T04:29:50.016Z,3.40
2022-09-06T04:32:17.776Z,3.63
2022-09-06T04:34:45.402Z,3.67
2022-09-06T04:37:14.781Z,3.55
2022-09-06T04:39:42.472Z,4.25
2022-09-06T04:42:10.134Z,4.00
2022-09-06T04:44:37.724Z,3.95
2022-09-06T04:47:09.842Z,4.60
2022-09-06T04:49:37.549Z,5.70
2022-09-06T04:52:05.388Z,5.60
2022-09-06T04:54:33.053Z,4.93
2022-09-06T04:57:00.658Z,4.55
2022-09-06T04:59:28.372Z,4.45
2022-09-06T05:01:56.122Z,4.90
2022-09-06T05:04:25.441Z,4.40
2022-09-06T05:07:00.932Z,4.40
2022-09-06T05:09:28.565Z,4.07
2022-09-06T05:11:56.192Z,4.07
2022-09-06T05:14:24.228Z,4.38
2022-09-06T05:16:51.988Z,4.80
2022-09-06T05:19:19.899Z,4.53
2022-09-06T05:22:08.763Z,4.40
2022-09-06T05:24:37.744Z,4.72
2022-09-06T05:27:07.377Z,4.40
2022-09-06T05:29:35.010Z,4.43
2022-09-06T05:32:03.062Z,4.93
2022-09-06T05:34:31.033Z,4.85
2022-09-06T05:36:58.684Z,4.10
2022-09-06T05:39:26.382Z,4.60
2022-09-06T05:41:55.352Z,4.10
2022-09-06T05:44:23.000Z,3.83
2022-09-06T05:46:50.788Z,4.63
2022-09-06T05:49:18.407Z,3.50
2022-09-06T05:51:50.959Z,4.28
2022-09-06T05:54:18.588Z,3.60
2022-09-06T05:56:46.210Z,4.05
2022-09-06T05:59:15.363Z,4.40
2022-09-06T06:01:48.973Z,4.20
2022-09-06T06:04:18.463Z,4.90
2022-09-06T06:06:46.824Z,4.38
2022-09-06T06:09:14.765Z,4.70
2022-09-06T06:11:42.692Z,4.43
2022-09-06T06:14:10.863Z,4.10
2022-09-06T06:16:39.970Z,4.82
2022-09-06T06:19:07.693Z,3.92
2022-09-06T06:21:35.659Z,4.03
2022-09-06T06:24:05.152Z,4.57
2022-09-06T06:26:34.240Z,4.45
2022-09-06T06:29:02.684Z,4.32
2022-09-06T06:31:31.524Z,4.18
2022-09-06T06:34:03.098Z,3.70
2022-09-06T06:36:33.608Z,7.63
2022-09-06T06:39:02.919Z,3.90
2022-09-06T06:41:32.662Z,3.90
2022-09-06T06:44:01.732Z,4.32
2022-09-06T06:46:31.341Z,4.53
2022-09-06T06:49:00.574Z,3.97
2022-09-06T06:51:31.317Z,4.70
2022-09-06T06:53:59.156Z,4.35
2022-09-06T06:56:28.595Z,5.25
2022-09-06T06:58:58.359Z,4.75
2022-09-06T07:01:27.909Z,4.70
2022-09-06T07:03:55.611Z,3.67
2022-09-06T07:09:16.200Z,3.35
2022-09-06T07:11:43.841Z,3.17
2022-09-06T07:14:11.491Z,3.75
2022-09-06T07:16:39.147Z,5.20
2022-09-06T07:19:07.117Z,4.28
2022-09-06T07:24:12.718Z,3.70
2022-09-06T07:26:40.797Z,3.88
2022-09-06T07:29:09.026Z,3.63
2022-09-06T07:34:27.532Z,3.30
2022-09-06T07:36:57.056Z,3.40
2022-09-06T07:39:24.730Z,3.35
2022-09-06T07:41:52.449Z,3.17
2022-09-06T07:44:20.114Z,3.40
2022-09-06T07:46:47.915Z,3.88
2022-09-06T07:49:15.591Z,2.95
2022-09-06T07:51:43.240Z,3.25
2022-09-06T07:54:30.768Z,2.72
2022-09-06T07:56:58.953Z,2.88
2022-09-06T07:59:27.664Z,2.70
2022-09-06T08:01:55.413Z,3.00
2022-09-06T08:04:23.103Z,2.70
2022-09-06T08:09:41.071Z,2.95
2022-09-06T08:12:09.427Z,2.90
2022-09-06T08:14:37.316Z,2.60
2022-09-06T08:17:05.438Z,2.47
2022-09-06T08:19:34.329Z,2.83
2022-09-06T08:22:01.967Z,2.40
2022-09-06T08:24:29.562Z,2.70
2022-09-06T08:26:58.533Z,3.78
2022-09-06T08:29:27.289Z,3.80
2022-09-06T08:31:54.926Z,3.00
2022-09-06T08:34:22.580Z,2.88
2022-09-06T08:36:50.196Z,3.00
2022-09-06T08:39:18.184Z,3.10
2022-09-06T08:41:52.435Z,2.55
2022-09-06T08:47:13.359Z,3.00
2022-09-06T08:49:44.828Z,2.80
2022-09-06T08:52:35.243Z,2.80
2022-09-06T08:55:18.178Z,2.58
2022-09-06T08:57:58.350Z,2.47
2022-09-06T09:00:27.548Z,2.42
2022-09-06T09:03:05.670Z,2.70
2022-09-06T09:05:36.020Z,2.53
2022-09-06T09:08:13.348Z,2.90
2022-09-06T09:10:43.950Z,2.72
2022-09-06T09:13:20.973Z,3.45
2022-09-06T09:15:50.035Z,3.17
2022-09-06T09:18:23.576Z,2.72
2022-09-06T09:20:51.328Z,2.58
2022-09-06T09:23:18.992Z,2.85
2022-09-06T09:25:48.081Z,2.65
2022-09-06T09:28:19.810Z,2.90
2022-09-06T09:30:52.275Z,3.60
2022-09-06T09:33:31.061Z,5.30
2022-09-06T09:36:01.012Z,2.90
2022-09-06T09:38:30.996Z,2.97
2022-09-06T09:41:00.939Z,2.97
2022-09-06T09:43:31.975Z,2.75
2022-09-06T09:46:17.357Z,3.13
2022-09-06T09:49:00.359Z,2.45
2022-09-06T09:51:28.340Z,2.20
2022-09-06T09:53:57.574Z,2.58
2022-09-06T09:56:33.507Z,2.45
2022-09-06T09:59:01.899Z,2.30
2022-09-06T10:01:33.835Z,3.22
2022-09-06T10:09:38.669Z,2.60
2022-09-06T10:12:06.989Z,2.70
2022-09-06T10:14:43.062Z,2.63
2022-09-06T10:17:20.104Z,2.78
2022-09-06T10:19:48.695Z,2.53
2022-09-06T10:22:27.836Z,2.75
2022-09-06T10:25:14.946Z,2.90
2022-09-06T10:28:10.960Z,2.35
2022-09-06T10:30:47.983Z,3.17
2022-09-06T10:33:28.611Z,2.75
2022-09-06T10:35:58.117Z,3.30
2022-09-06T10:38:36.052Z,2.72
2022-09-06T10:41:21.569Z,2.58
2022-09-06T10:43:56.943Z,2.90
2022-09-06T10:46:27.682Z,2.78
2022-09-06T10:48:57.088Z,3.20
2022-09-06T10:51:33.556Z,2.38
2022-09-06T10:54:08.423Z,3.03
2022-09-06T10:56:42.724Z,2.92
2022-09-06T11:02:15.997Z,2.60
2022-09-06T11:07:39.668Z,2.53
2022-09-06T11:10:15.697Z,2.17
2022-09-06T11:12:48.669Z,2.22
2022-09-06T11:15:19.285Z,2.33
2022-09-06T11:17:52.416Z,2.10
2022-09-06T11:23:20.878Z,2.17
2022-09-06T11:26:23.853Z,2.67
2022-09-06T11:28:55.888Z,2.47
2022-09-06T11:34:22.900Z,2.75
2022-09-06T11:36:53.815Z,2.13
2022-09-06T11:42:40.929Z,2.20
2022-09-06T11:45:22.037Z,2.20
2022-09-06T11:47:51.657Z,2.25
2022-09-06T11:50:52.423Z,2.17
2022-09-06T11:53:22.751Z,1.95
2022-09-06T11:56:10.421Z,2.60
2022-09-06T11:58:50.412Z,2.47
2022-09-06T12:01:37.103Z,2.30
2022-09-06T12:04:10.448Z,2.00
2022-09-06T12:06:41.373Z,1.88
2022-09-06T12:09:30.145Z,2.10
2022-09-06T12:11:59.183Z,2.00
2022-09-06T12:14:31.850Z,1.75
2022-09-06T12:17:25.065Z,1.58
2022-09-06T12:19:54.683Z,2.13
2022-09-06T12:22:56.089Z,2.17
2022-09-06T12:25:56.334Z,1.63
2022-09-06T12:28:28.513Z,1.63
2022-09-06T12:30:56.336Z,1.48
2022-09-06T12:33:29.081Z,1.95
2022-09-06T12:36:14.780Z,1.73
2022-09-06T12:38:55.436Z,2.13
2022-09-06T12:41:24.888Z,1.65
2022-09-06T12:43:53.008Z,1.38
2022-09-06T12:46:20.670Z,2.42
2022-09-06T12:49:01.765Z,1.30
2022-09-06T12:51:29.346Z,1.83
2022-09-06T12:54:00.421Z,1.80
2022-09-06T12:56:30.740Z,1.70
2022-09-06T12:59:16.960Z,1.90
2022-09-06T13:01:51.191Z,1.20
2022-09-06T13:04:27.115Z,2.05
2022-09-06T13:06:56.244Z,1.60
2022-09-06T13:09:26.904Z,1.42
2022-09-06T13:11:59.731Z,1.58
2022-09-06T13:14:30.880Z,1.55
2022-09-06T13:16:58.449Z,1.10
2022-09-06T13:19:33.159Z,1.30
2022-09-06T13:22:01.293Z,1.67
2022-09-06T13:24:46.562Z,1.52
2022-09-06T13:27:26.549Z,1.42
2022-09-06T13:29:58.806Z,1.73
2022-09-06T13:35:24.583Z,1.33
2022-09-06T13:37:52.232Z,1.60
2022-09-06T13:41:07.039Z,1.27
2022-09-06T13:43:33.305Z,1.70
2022-09-06T13:48:33.084Z,1.20
2022-09-06T13:51:00.812Z,1.25
2022-09-06T13:53:28.573Z,1.63
2022-09-06T13:55:56.128Z,1.58
2022-09-06T13:58:24.480Z,1.50
2022-09-06T14:00:54.413Z,1.58
2022-09-06T14:03:24.818Z,2.00
2022-09-06T14:05:55.282Z,1.50
2022-09-06T14:08:22.966Z,1.65
2022-09-06T14:10:51.727Z,1.70
2022-09-06T14:13:20.949Z,1.50
2022-09-06T14:15:50.395Z,1.20
2022-09-06T14:18:19.478Z,1.90
2022-09-06T14:20:52.899Z,1.40
2022-09-06T14:23:21.038Z,1.33
2022-09-06T14:25:48.932Z,1.30
2022-09-06T14:28:16.856Z,1.25
2022-09-06T14:30:44.450Z,1.58
2022-09-06T14:33:12.076Z,4.65
2022-09-06T14:35:41.686Z,1.40
2022-09-06T14:38:09.298Z,1.58
2022-09-06T14:40:38.317Z,0.80
2022-09-06T14:43:06.379Z,1.30
2022-09-06T14:45:35.139Z,1.33
2022-09-06T14:48:03.353Z,1.20
2022-09-06T14:50:31.297Z,0.90
2022-09-06T14:53:00.329Z,0.93
2022-09-06T14:55:28.564Z,1.10
2022-09-06T14:57:56.270Z,1.23
2022-09-06T15:00:23.972Z,1.48
2022-09-06T15:02:51.682Z,0.70
2022-09-06T15:05:19.384Z,0.88
2022-09-06T15:07:47.685Z,1.08
2022-09-06T15:10:16.857Z,0.77
2022-09-06T15:12:44.521Z,1.00
2022-09-06T15:15:12.180Z,1.13
2022-09-06T15:17:39.843Z,1.20
2022-09-06T15:20:08.075Z,0.95
2022-09-06T15:22:36.508Z,0.88
2022-09-06T15:25:04.563Z,1.35
2022-09-06T15:27:33.881Z,0.75
2022-09-06T15:30:01.577Z,0.70
2022-09-06T15:32:29.287Z,0.90
2022-09-06T15:35:00.232Z,1.33
2022-09-06T15:37:30.189Z,0.90
2022-09-06T15:39:57.898Z,1.13
2022-09-06T15:42:25.616Z,1.05
2022-09-06T15:44:55.201Z,1.10
2022-09-06T15:47:22.885Z,1.10
2022-09-06T15:49:50.775Z,0.80
2022-09-06T15:52:19.112Z,0.77
2022-09-06T15:55:04.217Z,1.00
2022-09-06T15:57:31.983Z,0.82
2022-09-06T16:00:00.997Z,0.85
2022-09-06T16:02:28.757Z,0.80
2022-09-06T16:04:56.819Z,1.00
2022-09-06T16:07:25.364Z,0.93
2022-09-06T16:09:53.006Z,0.80
2022-09-06T16:12:20.691Z,1.20
2022-09-06T16:14:48.349Z,1.10
2022-09-06T16:17:17.375Z,1.42
2022-09-06T16:19:45.510Z,5.63
2022-09-06T16:22:13.292Z,1.40
2022-09-06T16:24:40.943Z,1.20
2022-09-06T16:27:08.609Z,1.80
2022-09-06T16:29:36.351Z,1.00
2022-09-06T16:32:04.428Z,2.45
2022-09-06T16:34:33.440Z,1.17
2022-09-06T16:37:04.035Z,1.25
2022-09-06T16:39:31.771Z,1.15
2022-09-06T16:42:00.173Z,1.45
2022-09-06T16:44:28.591Z,1.23
2022-09-06T16:46:57.368Z,1.30
2022-09-06T16:49:25.240Z,0.93
2022-09-06T16:51:54.283Z,1.10
2022-09-06T16:54:22.228Z,1.00
2022-09-06T16:56:50.286Z,1.00
2022-09-06T16:59:18.492Z,1.02
2022-09-06T17:01:46.797Z,1.23
2022-09-06T17:04:15.208Z,1.08
2022-09-06T17:06:45.765Z,1.00
2022-09-06T17:09:17.618Z,0.98
2022-09-06T17:11:45.301Z,0.90
2022-09-06T17:14:12.979Z,1.10
2022-09-06T17:16:58.163Z,0.88
2022-09-06T17:19:26.449Z,1.13
2022-09-06T17:21:54.544Z,0.90
2022-09-06T17:24:23.619Z,0.95
2022-09-06T17:26:51.329Z,0.73
2022-09-06T17:29:19.333Z,1.27
2022-09-06T17:31:47.744Z,1.13
2022-09-06T17:34:15.693Z,1.00
2022-09-06T17:36:43.377Z,1.40
2022-09-06T17:39:13.690Z,1.40
2022-09-06T17:41:45.639Z,1.50
2022-09-06T17:44:14.888Z,1.00
2022-09-06T17:46:56.933Z,1.20
2022-09-06T17:49:30.788Z,1.08
2022-09-06T17:51:58.879Z,1.20
2022-09-06T17:54:26.696Z,1.20
2022-09-06T17:56:55.731Z,2.83
2022-09-06T17:59:23.436Z,2.53
2022-09-06T18:01:51.047Z,2.42
2022-09-06T18:04:19.362Z,1.92
2022-09-06T18:06:47.799Z,1.15
2022-09-06T18:09:17.735Z,1.38
2022-09-06T18:11:47.307Z,1.58
2022-09-06T18:14:20.657Z,1.40
2022-09-06T18:16:49.227Z,1.67
2022-09-06T18:19:18.638Z,1.90
2022-09-06T18:21:47.223Z,2.05
2022-09-06T18:24:16.054Z,1.50
2022-09-06T18:26:44.617Z,1.50
2022-09-06T18:29:14.705Z,1.30
2022-09-06T18:31:44.657Z,2.30
2022-09-06T18:34:12.573Z,3.38
2022-09-06T18:36:40.807Z,2.38
2022-09-06T18:39:08.568Z,2.45
2022-09-06T18:41:53.928Z,1.60
2022-09-06T18:44:22.339Z,2.00
2022-09-06T18:46:51.400Z,1.70
2022-09-06T18:49:19.151Z,1.77
2022-09-06T18:51:47.407Z,1.67
2022-09-06T18:54:15.560Z,1.73
2022-09-06T18:56:44.681Z,1.60
2022-09-06T18:59:13.716Z,1.60
2022-09-06T19:01:42.635Z,2.38
2022-09-06T19:04:13.126Z,1.50
2022-09-06T19:06:42.610Z,1.63
2022-09-06T19:09:12.223Z,1.42
2022-09-06T19:11:41.514Z,1.75
2022-09-06T19:14:09.296Z,1.77
2022-09-06T19:16:37.141Z,1.60
2022-09-06T19:19:06.793Z,1.30
2022-09-06T19:21:41.462Z,1.38
2022-09-06T19:24:11.539Z,1.60
2022-09-06T19:26:41.421Z,1.98
2022-09-06T19:29:14.397Z,1.67
2022-09-06T19:31:44.197Z,1.85
2022-09-06T19:34:15.142Z,1.98
2022-09-06T19:36:45.833Z,1.73
2022-09-06T19:39:16.807Z,1.88
2022-09-06T19:41:46.738Z,1.60
2022-09-06T19:44:15.243Z,1.58
2022-09-06T19:46:45.938Z,2.00
2022-09-06T19:49:14.436Z,1.80
2022-09-06T19:51:43.795Z,1.52
2022-09-06T19:54:14.471Z,1.90
2022-09-06T19:56:43.589Z,1.85
2022-09-06T19:59:12.833Z,1.90
2022-09-06T20:01:42.302Z,1.95
2022-09-06T20:04:12.230Z,1.75
2022-09-06T20:06:40.131Z,2.05
2022-09-06T20:09:09.888Z,1.45
2022-09-06T20:11:41.845Z,2.33
2022-09-06T20:14:10.304Z,1.45
2022-09-06T20:16:41.723Z,1.80
2022-09-06T20:19:11.823Z,2.28
2022-09-06T20:21:39.533Z,1.80
2022-09-06T20:24:07.542Z,2.30
2022-09-06T20:26:35.534Z,2.75
2022-09-06T20:29:06.513Z,2.58
2022-09-06T20:31:36.031Z,1.80
2022-09-06T20:34:05.402Z,2.13
2022-09-06T20:36:33.481Z,2.40
2022-09-06T20:39:01.991Z,1.88
2022-09-06T20:41:29.847Z,2.03
2022-09-06T20:43:59.281Z,2.40
2022-09-06T20:46:31.122Z,2.08
2022-09-06T20:49:03.422Z,2.58
2022-09-06T20:51:31.727Z,2.28
2022-09-06T20:54:01.019Z,2.38
2022-09-06T20:56:30.872Z,2.60
2022-09-06T20:59:00.659Z,2.22
2022-09-06T21:01:31.646Z,3.08
2022-09-06T21:04:01.205Z,2.00
2022-09-06T21:06:30.915Z,2.33
2022-09-06T21:08:59.080Z,2.20
2022-09-06T21:11:26.804Z,2.17
2022-09-06T21:13:56.339Z,2.15
2022-09-06T21:16:25.540Z,2.75
2022-09-06T21:18:55.840Z,4.28
2022-09-06T21:21:25.205Z,3.70
2022-09-06T21:23:52.915Z,3.08
2022-09-06T21:26:21.648Z,2.63
2022-09-06T21:28:50.265Z,2.70
2022-09-06T21:31:21.854Z,3.70
2022-09-06T21:33:52.522Z,3.92
2022-09-06T21:36:22.792Z,3.00
2022-09-06T21:38:53.362Z,3.20
2022-09-06T21:41:21.511Z,2.70
2022-09-06T21:43:53.214Z,2.30
2022-09-06T21:46:22.887Z,2.60
2022-09-06T21:48:52.929Z,1.98
2022-09-06T21:51:24.232Z,2.53
2022-09-06T21:53:52.856Z,2.20
2022-09-06T21:56:23.624Z,2.30
2022-09-06T21:58:52.231Z,2.40
2022-09-06T22:01:20.487Z,1.90
2022-09-06T22:03:48.242Z,2.22
2022-09-06T22:06:19.372Z,2.20
2022-09-06T22:08:49.231Z,2.88
2022-09-06T22:11:18.824Z,2.30
2022-09-06T22:13:47.817Z,1.98
2022-09-06T22:16:17.698Z,2.88
2022-09-06T22:18:45.940Z,2.70
2022-09-06T22:21:18.340Z,2.25
2022-09-06T22:23:52.602Z,2.40
2022-09-06T22:26:20.968Z,2.38
2022-09-06T22:28:48.832Z,2.40
2022-09-06T22:31:16.582Z,2.17
2022-09-06T22:33:44.604Z,2.72
2022-09-06T22:36:12.415Z,2.40
2022-09-06T22:38:40.099Z,2.65
2022-09-06T22:41:09.251Z,2.20
2022-09-06T22:43:37.040Z,2.42
2022-09-06T22:46:06.330Z,2.50
2022-09-06T22:48:34.836Z,2.35
2022-09-06T22:51:03.615Z,2.72
2022-09-06T22:53:32.224Z,2.30
2022-09-06T22:56:01.281Z,2.28
2022-09-06T22:58:30.612Z,2.10
2022-09-06T23:01:06.530Z,2.58
2022-09-06T23:03:35.231Z,2.42
2022-09-06T23:06:03.754Z,2.40
2022-09-06T23:08:32.315Z,2.28
2022-09-06T23:11:05.169Z,2.20
2022-09-06T23:13:34.521Z,2.33
2022-09-06T23:16:07.149Z,2.20
2022-09-06T23:18:35.160Z,2.20
2022-09-06T23:21:07.765Z,2.33
2022-09-06T23:23:35.741Z,2.20
2022-09-06T23:26:07.925Z,2.70
2022-09-06T23:28:37.126Z,3.00
2022-09-06T23:31:06.316Z,2.70
2022-09-06T23:33:37.263Z,2.38
2022-09-06T23:36:05.454Z,2.30
2022-09-06T23:38:33.591Z,2.22
2022-09-06T23:41:01.396Z,2.25
2022-09-06T23:43:29.485Z,2.50
2022-09-06T23:45:58.615Z,2.90
2022-09-06T23:48:26.745Z,2.45
2022-09-06T23:50:54.507Z,2.65
2022-09-06T23:53:22.209Z,2.08
2022-09-06T23:55:49.895Z,2.33
2022-09-06T23:58:17.597Z,2.58
